Search for airport 
image banner adimage banner adimage banner ad
image banner ad

F72 - Franklin Field

Located in Franklin, United States

ICAO - F72, IATA -

Data provided by Airmate  

General information

Coordinates: N38°18'14" W121°25'46"
Elevation is 23 feet MSL.
Magnetic variation is 16° East
View others Airports in California

Operational data

Special qualification required
Current time UTC:
Current local time:
Weather at : KSAC - Sacramento Executive ( 24 km )
METAR: KSAC 240853Z AUTO 19008KT 10SM CLR 16/11 A2993 RMK AO2 SLP135 T01610111 50004
TAF: KSAC 240520Z 2406/2506 21008KT P6SM SKC FM242200 21008G16KT P6SM FEW200
View NOTAMs / SUP AIP / TFR affecting this airport [VIEW]
Communications frequencies: [VIEW]

Runways:

RWY identifierQFULength (ft)Width (ft)SurfaceLDA (ft)
09104°303160ASPH
27284°303160ASPH
18194°312360ASPH
3614°312360ASPH

Airport contact information

Address: Franklin United States

Satellite view of F72